Time;durP1;ratioP1;P1;durP2;ratioP2;P2;SDS_P1;SDS_P2;PMS_P1;PMS_P2;Temp;Humidity;BMP_temperature;BMP_pressure;BME280_temperature;BME280_humidity;BME280_pressure;Samples;Min_cycle;Max_cycle;Signal;HPM_P1;HPM_P2
2024/04/02 00:01:56;;;;;;;8.93;2.20;;;;;;;10.21;100.00;100126.31;4973496;28;20190;-63
2024/04/02 00:04:21;;;;;;;7.00;2.08;;;;;;;10.13;100.00;100133.91;4973572;28;20197;-63
2024/04/02 00:06:47;;;;;;;15.30;2.28;;;;;;;9.94;100.00;100134.03;4956449;28;20667;-63
2024/04/02 00:09:12;;;;;;;10.68;2.25;;;;;;;10.04;100.00;100147.78;4973609;28;20179;-63
2024/04/02 00:11:37;;;;;;;9.02;2.50;;;;;;;10.06;100.00;100135.16;4975347;28;20287;-63
2024/04/02 00:14:03;;;;;;;12.40;2.50;;;;;;;10.07;100.00;100142.25;4978059;28;20210;-63
2024/04/02 00:16:28;;;;;;;7.30;2.83;;;;;;;10.18;100.00;100140.75;4976831;28;20206;-64
2024/04/02 00:18:54;;;;;;;11.68;3.08;;;;;;;10.05;100.00;100138.81;4976876;28;20221;-63
2024/04/02 00:21:20;;;;;;;15.02;3.60;;;;;;;10.02;100.00;100138.97;4976815;28;20182;-63
2024/04/02 00:23:45;;;;;;;14.15;4.28;;;;;;;9.89;100.00;100139.59;4977055;28;20186;-63
2024/04/02 00:26:11;;;;;;;12.30;4.85;;;;;;;9.74;100.00;100135.00;4975301;28;20179;-63
2024/04/02 00:28:38;;;;;;;16.77;4.72;;;;;;;9.77;100.00;100141.09;4976808;28;20198;-63
2024/04/02 00:31:05;;;;;;;12.82;5.28;;;;;;;9.79;100.00;100133.84;4976685;28;20249;-63
2024/04/02 00:33:30;;;;;;;14.52;4.50;;;;;;;9.88;100.00;100140.53;4976825;28;20579;-63
2024/04/02 00:36:03;;;;;;;17.77;6.82;;;;;;;10.03;100.00;100148.72;4976183;28;20223;-63
2024/04/02 00:38:29;;;;;;;8.90;5.57;;;;;;;9.85;100.00;100148.72;4976972;28;20210;-63
2024/04/02 00:40:55;;;;;;;12.20;5.07;;;;;;;9.81;100.00;100144.47;4976533;28;20217;-63
2024/04/02 00:43:20;;;;;;;17.63;5.93;;;;;;;9.77;100.00;100119.69;4976610;28;20206;-63
2024/04/02 00:45:46;;;;;;;19.98;6.22;;;;;;;9.84;100.00;100152.34;4976496;28;20183;-63
2024/04/02 00:48:11;;;;;;;12.55;6.22;;;;;;;9.88;100.00;100145.88;4976634;28;20178;-63
2024/04/02 00:50:37;;;;;;;13.32;5.80;;;;;;;9.97;100.00;100148.09;4976337;28;20228;-63
2024/04/02 00:53:02;;;;;;;13.80;6.85;;;;;;;9.79;100.00;100146.38;4976292;28;20212;-63
2024/04/02 00:55:28;;;;;;;17.15;6.95;;;;;;;9.94;100.00;100148.25;4976280;28;20213;-63
2024/04/02 00:57:54;;;;;;;10.00;6.40;;;;;;;9.97;100.00;100137.38;4976540;28;20194;-63
2024/04/02 01:00:19;;;;;;;20.55;6.93;;;;;;;9.87;100.00;100135.28;4974924;28;20250;-62
2024/04/02 01:02:45;;;;;;;15.15;8.15;;;;;;;9.66;100.00;100148.78;4976931;28;20182;-62
2024/04/02 01:05:10;;;;;;;15.02;6.85;;;;;;;9.83;100.00;100145.25;4976068;28;20182;-63
2024/04/02 01:07:39;;;;;;;13.05;6.68;;;;;;;9.93;100.00;100153.69;4976234;28;20598;-63
2024/04/02 01:10:05;;;;;;;11.55;6.18;;;;;;;9.91;100.00;100153.75;4976249;28;20186;-63
2024/04/02 01:12:30;;;;;;;12.52;7.05;;;;;;;9.76;100.00;100159.91;4958824;28;20237;-63
2024/04/02 01:14:56;;;;;;;15.60;7.40;;;;;;;9.97;100.00;100161.47;4976217;28;20572;-63
2024/04/02 01:17:21;;;;;;;12.48;6.78;;;;;;;9.95;100.00;100155.34;4976219;28;20225;-63
2024/04/02 01:19:47;;;;;;;16.65;7.60;;;;;;;9.86;100.00;100155.78;4975952;28;20182;-63
2024/04/02 01:22:12;;;;;;;14.77;6.97;;;;;;;9.75;100.00;100150.97;4975369;28;20245;-63
2024/04/02 01:24:37;;;;;;;19.27;7.55;;;;;;;9.85;100.00;100162.09;4975663;28;20182;-63
2024/04/02 01:27:03;;;;;;;12.88;7.40;;;;;;;9.72;100.00;100166.34;4976101;28;20187;-63
2024/04/02 01:29:28;;;;;;;13.00;6.90;;;;;;;9.64;100.00;100162.22;4975995;28;20178;-63
2024/04/02 01:31:54;;;;;;;17.33;7.40;;;;;;;9.85;100.00;100159.41;4976454;28;20233;-62
2024/04/02 01:34:19;;;;;;;11.45;6.97;;;;;;;9.66;100.00;100159.47;4976097;28;20657;-62
2024/04/02 01:36:45;;;;;;;15.85;7.03;;;;;;;9.67;100.00;100153.19;4976005;28;20182;-62
2024/04/02 01:39:10;;;;;;;12.88;6.13;;;;;;;9.79;100.00;100160.59;4975817;28;20190;-62
2024/04/02 01:41:36;;;;;;;13.40;6.32;;;;;;;9.69;100.00;100147.75;4974345;28;20772;-62
2024/04/02 01:44:04;;;;;;;13.60;5.15;;;;;;;9.90;100.00;100154.69;4975337;28;20554;-62
2024/04/02 01:46:30;;;;;;;14.25;6.10;;;;;;;9.67;100.00;100152.34;4975444;28;20190;-64
2024/04/02 01:48:55;;;;;;;13.88;5.85;;;;;;;9.80;100.00;100156.97;4975140;28;20638;-62
2024/04/02 01:51:21;;;;;;;18.70;6.97;;;;;;;9.84;100.00;100159.50;4975514;28;20232;-62
2024/04/02 01:53:46;;;;;;;13.68;6.50;;;;;;;9.78;100.00;100163.34;4973751;28;20744;-63
2024/04/02 01:56:12;;;;;;;10.00;5.57;;;;;;;9.44;100.00;100140.97;4975288;28;20191;-62
2024/04/02 01:58:37;;;;;;;15.32;6.32;;;;;;;9.69;100.00;100162.00;4974789;28;20268;-62
2024/04/02 02:01:03;;;;;;;11.68;6.18;;;;;;;9.61;100.00;100173.06;4957705;28;20688;-62
2024/04/02 02:03:28;;;;;;;14.60;5.40;;;;;;;9.71;100.00;100175.28;4974753;28;20704;-62
2024/04/02 02:05:53;;;;;;;17.30;5.95;;;;;;;9.62;100.00;100172.16;4974233;28;20273;-63
2024/04/02 02:08:19;;;;;;;15.50;5.15;;;;;;;9.49;100.00;100173.69;4974729;28;20540;-64
2024/04/02 02:10:44;;;;;;;14.90;4.60;;;;;;;9.53;100.00;100177.09;4973796;28;20521;-62
2024/04/02 02:13:10;;;;;;;8.93;4.32;;;;;;;9.40;100.00;100150.06;4974607;28;20202;-62
2024/04/02 02:15:35;;;;;;;11.23;4.90;;;;;;;9.51;100.00;100177.16;4974729;28;20182;-63
2024/04/02 02:18:02;;;;;;;15.25;4.93;;;;;;;9.47;100.00;100183.59;4974513;28;20681;-64
2024/04/02 02:20:27;;;;;;;22.83;4.63;;;;;;;9.40;100.00;100169.69;4974758;28;20205;-64
2024/04/02 02:22:52;;;;;;;11.18;4.60;;;;;;;9.33;100.00;100172.72;4974403;28;20258;-64
2024/04/02 02:25:18;;;;;;;8.60;4.43;;;;;;;9.33;100.00;100178.94;4974622;28;20190;-64
2024/04/02 02:27:43;;;;;;;14.82;5.80;;;;;;;9.42;100.00;100182.97;4974725;28;20187;-64
2024/04/02 02:30:09;;;;;;;9.02;4.55;;;;;;;9.33;100.00;100183.41;4974716;28;20205;-62
2024/04/02 02:32:35;;;;;;;11.05;5.43;;;;;;;9.32;100.00;100190.56;4973234;28;20264;-62
2024/04/02 02:35:01;;;;;;;9.23;4.70;;;;;;;9.53;100.00;100182.44;4974348;28;20294;-63
2024/04/02 02:37:26;;;;;;;10.13;4.70;;;;;;;9.54;100.00;100190.38;4957357;28;20205;-63
2024/04/02 02:39:51;;;;;;;12.68;4.97;;;;;;;9.36;100.00;100188.63;4974787;28;20179;-63
2024/04/02 02:42:17;;;;;;;12.13;6.07;;;;;;;9.44;100.00;100202.47;4974398;28;20232;-62
2024/04/02 02:44:42;;;;;;;12.13;5.40;;;;;;;9.19;100.00;100190.28;4974600;28;20203;-63
2024/04/02 02:47:07;;;;;;;13.55;5.97;;;;;;;9.21;100.00;100159.00;4974560;28;20183;-63
2024/04/02 02:49:33;;;;;;;12.23;5.13;;;;;;;9.48;100.00;100188.00;4974765;28;20183;-63
2024/04/02 02:51:59;;;;;;;10.35;5.38;;;;;;;9.62;100.00;100193.53;4974209;28;20269;-63
2024/04/02 02:54:25;;;;;;;18.30;5.72;;;;;;;9.62;100.00;100188.19;4957312;28;20194;-62
2024/04/02 02:56:50;;;;;;;15.60;4.82;;;;;;;9.71;100.00;100194.00;4974403;28;20190;-63
2024/04/02 02:59:16;;;;;;;8.32;4.72;;;;;;;9.56;100.00;100190.31;4974408;28;20313;-63
2024/04/02 03:01:41;;;;;;;14.25;5.95;;;;;;;9.55;100.00;100194.78;4974180;28;20257;-63
2024/04/02 03:04:07;;;;;;;10.00;4.85;;;;;;;9.40;100.00;100190.19;4974597;28;20186;-63
2024/04/02 03:06:32;;;;;;;19.65;5.70;;;;;;;9.46;100.00;100198.78;4974486;28;20218;-63
2024/04/02 03:08:58;;;;;;;13.77;4.85;;;;;;;9.53;100.00;100202.00;4974186;28;20210;-63
2024/04/02 03:11:23;;;;;;;12.43;3.90;;;;;;;9.38;100.00;100184.91;4973890;28;20178;-63
2024/04/02 03:13:48;;;;;;;8.82;4.20;;;;;;;9.24;100.00;100192.75;4974125;28;20544;-63
2024/04/02 03:16:14;;;;;;;11.27;4.07;;;;;;;9.31;100.00;100201.31;4973835;28;20248;-63
2024/04/02 03:18:40;;;;;;;10.35;4.18;;;;;;;9.27;100.00;100195.25;4974148;28;20206;-63
2024/04/02 03:21:06;;;;;;;12.57;3.97;;;;;;;9.18;100.00;100207.25;4972826;28;20228;-63
2024/04/02 03:23:31;;;;;;;10.20;4.07;;;;;;;9.44;100.00;100216.69;4973966;28;20186;-63
2024/04/02 03:26:00;;;;;;;13.52;4.82;;;;;;;9.61;100.00;100212.31;4973913;28;20190;-63
2024/04/02 03:28:26;;;;;;;12.90;4.75;;;;;;;9.48;100.00;100201.38;4974506;28;20668;-63
2024/04/02 03:30:58;;;;;;;11.48;4.45;;;;;;;9.61;100.00;100204.31;4973835;28;20178;-63
2024/04/02 03:33:26;;;;;;;8.35;4.18;;;;;;;9.61;100.00;100226.56;4972717;28;20214;-63
2024/04/02 03:35:51;;;;;;;9.13;4.85;;;;;;;9.66;100.00;100215.63;4973068;28;20198;-63
2024/04/02 03:38:16;;;;;;;9.73;4.68;;;;;;;9.37;100.00;100214.38;4973933;28;20286;-63
2024/04/02 03:40:42;;;;;;;14.10;4.97;;;;;;;9.60;100.00;100227.53;4956787;28;20190;-63
2024/04/02 03:43:07;;;;;;;11.52;4.53;;;;;;;9.53;100.00;100225.22;4973890;28;20179;-63
2024/04/02 03:45:42;;;;;;;9.23;3.75;;;;;;;9.43;100.00;100212.31;4973883;28;20209;-63
2024/04/02 03:48:08;;;;;;;9.10;3.35;;;;;;;9.27;100.00;100225.50;4977670;28;20562;-63
2024/04/02 03:50:36;;;;;;;14.50;4.10;;;;;;;9.24;100.00;100222.13;4976511;28;20210;-63
2024/04/02 03:53:03;;;;;;;14.63;3.50;;;;;;;9.31;100.00;100228.94;4977432;28;20189;-63
2024/04/02 03:55:35;;;;;;;12.60;4.10;;;;;;;9.31;100.00;100226.25;4977591;28;20186;-63
2024/04/02 03:58:01;;;;;;;9.20;3.63;;;;;;;9.33;100.00;100234.19;4977481;28;20203;-63
2024/04/02 04:00:26;;;;;;;10.60;4.22;;;;;;;9.31;100.00;100228.94;4959770;28;20237;-63
2024/04/02 04:02:52;;;;;;;15.45;4.60;;;;;;;9.15;100.00;100231.44;4977621;28;20194;-62
2024/04/02 04:05:17;;;;;;;9.80;4.13;;;;;;;9.27;100.00;100225.50;4977228;28;20182;-62
2024/04/02 04:07:42;;;;;;;11.70;4.35;;;;;;;9.44;100.00;100232.72;4977235;28;20178;-62
2024/04/02 04:10:08;;;;;;;7.78;4.75;;;;;;;9.22;100.00;100238.25;4976990;28;20210;-63
2024/04/02 04:12:33;;;;;;;12.80;4.78;;;;;;;9.24;100.00;100251.53;4977187;28;20178;-63
2024/04/02 04:14:58;;;;;;;8.75;4.47;;;;;;;9.06;100.00;100240.75;4977407;28;20583;-63
2024/04/02 04:17:24;;;;;;;12.00;4.82;;;;;;;9.38;100.00;100248.19;4977309;28;20190;-63
2024/04/02 04:19:50;;;;;;;7.72;4.25;;;;;;;9.42;100.00;100253.31;4964461;28;20191;-63
2024/04/02 04:22:15;;;;;;;9.43;5.22;;;;;;;9.31;100.00;100254.78;4977450;28;20188;-63
2024/04/02 04:24:42;;;;;;;10.98;3.95;;;;;;;9.30;100.00;100243.22;4976753;28;20202;-63
2024/04/02 04:27:07;;;;;;;21.30;6.10;;;;;;;9.13;100.00;100252.03;4976852;28;20641;-62
2024/04/02 04:29:33;;;;;;;11.45;3.80;;;;;;;9.11;100.00;100253.88;4976821;28;20184;-63
2024/04/02 04:31:58;;;;;;;15.27;4.90;;;;;;;9.21;100.00;100257.88;4959394;28;20186;-63
2024/04/02 04:34:24;;;;;;;13.73;5.85;;;;;;;9.27;100.00;100264.75;4959382;28;20210;-63
2024/04/02 04:36:49;;;;;;;9.02;4.03;;;;;;;9.39;100.00;100266.84;4976539;28;20183;-63
2024/04/02 04:39:14;;;;;;;13.45;4.30;;;;;;;9.40;100.00;100259.69;4976915;28;20233;-63
2024/04/02 04:41:40;;;;;;;11.90;6.55;;;;;;;9.38;100.00;100264.25;4976583;28;20241;-63
2024/04/02 04:44:05;;;;;;;13.02;4.93;;;;;;;9.43;100.00;100263.09;4976777;28;20215;-63
2024/04/02 04:46:30;;;;;;;10.70;5.30;;;;;;;9.28;100.00;100267.34;4976232;28;20253;-63
2024/04/02 04:48:56;;;;;;;12.07;5.28;;;;;;;9.15;100.00;100250.16;4976452;28;20225;-63
2024/04/02 04:51:21;;;;;;;14.15;4.82;;;;;;;9.34;100.00;100279.56;4975405;28;20198;-63
2024/04/02 04:53:47;;;;;;;20.02;5.47;;;;;;;9.45;100.00;100276.38;4976277;28;20195;-62
2024/04/02 04:56:12;;;;;;;10.35;4.15;;;;;;;9.43;100.00;100283.59;4976120;28;20191;-63
2024/04/02 04:58:38;;;;;;;12.10;4.85;;;;;;;9.41;100.00;100285.47;4975936;28;20237;-63
2024/04/02 05:01:04;;;;;;;13.10;5.05;;;;;;;9.41;100.00;100290.81;4976273;28;20178;-63
2024/04/02 05:03:30;;;;;;;14.75;4.50;;;;;;;9.44;100.00;100282.66;4975085;28;20193;-62
2024/04/02 05:06:06;;;;;;;12.05;4.68;;;;;;;9.52;100.00;100288.50;4976203;28;20261;-63
2024/04/02 05:08:33;;;;;;;11.95;4.32;;;;;;;9.53;100.00;100287.56;4975940;28;20179;-63
2024/04/02 05:11:00;;;;;;;15.20;3.78;;;;;;;9.51;100.00;100296.59;4974841;28;20649;-63
2024/04/02 05:13:27;;;;;;;13.85;4.38;;;;;;;9.39;100.00;100295.38;4958678;28;20249;-63
2024/04/02 05:15:52;;;;;;;10.10;3.55;;;;;;;9.48;100.00;100302.09;4975968;28;20657;-62
2024/04/02 05:18:18;;;;;;;11.70;3.60;;;;;;;9.46;100.00;100280.78;4975570;28;20193;-62
2024/04/02 05:20:44;;;;;;;9.10;3.40;;;;;;;9.56;100.00;100298.13;4976150;28;20625;-63
2024/04/02 05:23:09;;;;;;;10.25;4.18;;;;;;;9.50;100.00;100297.56;4975331;28;20589;-63
2024/04/02 05:25:35;;;;;;;9.27;3.17;;;;;;;9.62;100.00;100305.84;4965839;28;20274;-63
2024/04/02 05:28:00;;;;;;;12.10;3.92;;;;;;;9.61;100.00;100300.56;4973964;28;20548;-65
2024/04/02 05:30:26;;;;;;;11.85;3.17;;;;;;;9.69;100.00;100298.38;4975617;28;20673;-64
2024/04/02 05:32:52;;;;;;;11.60;3.83;;;;;;;9.79;100.00;100302.34;4975231;28;20289;-64
2024/04/02 05:35:17;;;;;;;12.43;3.75;;;;;;;9.68;100.00;100307.38;4975257;28;20217;-64
2024/04/02 05:37:42;;;;;;;10.13;2.90;;;;;;;9.84;100.00;100307.47;4975183;28;20178;-63
2024/04/02 05:40:08;;;;;;;19.10;3.30;;;;;;;9.87;100.00;100304.66;4975134;28;20190;-63
2024/04/02 05:42:34;;;;;;;17.25;3.17;;;;;;;9.78;100.00;100307.78;4975218;28;20217;-63
2024/04/02 05:45:00;;;;;;;15.52;3.17;;;;;;;9.77;100.00;100298.91;4975581;28;20186;-63
2024/04/02 05:47:26;;;;;;;14.98;3.80;;;;;;;9.75;100.00;100305.25;4973717;28;20183;-63
2024/04/02 05:49:51;;;;;;;11.05;3.08;;;;;;;9.74;100.00;100308.84;4975711;28;20178;-63
2024/04/02 05:52:17;;;;;;;10.93;3.45;;;;;;;9.73;100.00;100318.72;4958103;28;20199;-63
2024/04/02 05:54:42;;;;;;;13.75;4.72;;;;;;;9.70;100.00;100321.53;4974982;28;20611;-63
2024/04/02 05:57:08;;;;;;;12.98;3.30;;;;;;;9.81;100.00;100310.31;4975047;28;20245;-64
2024/04/02 05:59:33;;;;;;;12.80;3.33;;;;;;;9.81;100.00;100319.19;4957882;28;20285;-63
2024/04/02 06:01:59;;;;;;;12.15;3.10;;;;;;;9.77;100.00;100311.38;4974938;28;20265;-63
2024/04/02 06:04:24;;;;;;;15.35;3.63;;;;;;;9.97;100.00;100319.34;4975134;28;20191;-63
2024/04/02 06:06:49;;;;;;;12.93;3.33;;;;;;;9.72;100.00;100324.13;4974819;28;20190;-63
2024/04/02 06:09:15;;;;;;;15.23;3.10;;;;;;;9.53;100.00;100313.44;4974308;28;20186;-63
2024/04/02 06:11:40;;;;;;;10.68;3.30;;;;;;;9.57;100.00;100320.38;4974745;28;20669;-63
2024/04/02 06:14:06;;;;;;;18.95;3.85;;;;;;;9.88;100.00;100330.47;4974786;28;20325;-63
2024/04/02 06:16:31;;;;;;;11.07;2.83;;;;;;;9.90;100.00;100322.38;4974524;28;20187;-63
2024/04/02 06:18:56;;;;;;;19.58;3.97;;;;;;;9.88;100.00;100327.81;4974929;28;20213;-63
2024/04/02 06:21:22;;;;;;;15.45;3.55;;;;;;;9.93;100.00;100331.13;4974710;28;20261;-63
2024/04/02 06:23:47;;;;;;;12.00;3.10;;;;;;;9.91;100.00;100326.81;4974702;28;20507;-63
2024/04/02 06:26:16;;;;;;;17.35;3.58;;;;;;;10.05;100.00;100334.16;4972232;28;20186;-63
2024/04/02 06:28:41;;;;;;;10.93;3.47;;;;;;;10.08;100.00;100331.31;4965402;28;20179;-63
2024/04/02 06:31:06;;;;;;;15.30;4.30;;;;;;;10.25;100.00;100336.69;4974340;28;20700;-63
2024/04/02 06:33:32;;;;;;;11.82;4.03;;;;;;;10.30;100.00;100349.84;4974438;28;20590;-63
2024/04/02 06:35:57;;;;;;;15.82;3.78;;;;;;;9.97;100.00;100340.72;4974398;28;20273;-63
2024/04/02 06:38:22;;;;;;;16.02;3.67;;;;;;;10.13;100.00;100348.00;4974317;28;20175;-64
2024/04/02 06:40:48;;;;;;;16.17;3.42;;;;;;;10.08;100.00;100344.69;4974314;28;20194;-63
2024/04/02 06:43:13;;;;;;;16.60;3.97;;;;;;;10.26;100.00;100354.50;4974478;28;20637;-65
2024/04/02 06:45:38;;;;;;;19.88;3.45;;;;;;;10.29;100.00;100353.47;4974272;28;20190;-64
2024/04/02 06:48:04;;;;;;;14.20;3.00;;;;;;;10.09;100.00;100336.59;4973976;28;20183;-64
2024/04/02 06:50:30;;;;;;;8.85;2.25;;;;;;;10.12;100.00;100343.59;4974795;28;20195;-64
2024/04/02 06:52:55;;;;;;;13.15;2.60;;;;;;;10.29;100.00;100353.47;4974236;28;20178;-65
2024/04/02 06:55:20;;;;;;;13.80;3.47;;;;;;;10.25;100.00;100341.19;4973865;28;20603;-62
2024/04/02 06:57:46;;;;;;;20.23;3.38;;;;;;;10.12;100.00;100352.50;4972384;28;20277;-64
2024/04/02 07:00:14;;;;;;;19.52;3.60;;;;;;;10.32;100.00;100354.19;4971860;28;20230;-65
2024/04/02 07:02:39;;;;;;;14.27;2.88;;;;;;;10.32;100.00;100362.22;4964316;28;20233;-64
2024/04/02 07:05:05;;;;;;;16.73;3.40;;;;;;;10.32;100.00;100369.38;4974729;28;20206;-64
2024/04/02 07:07:30;;;;;;;10.00;2.30;;;;;;;10.31;100.00;100364.97;4940965;28;20197;-64
2024/04/02 07:09:56;;;;;;;21.30;3.47;;;;;;;10.27;100.00;100374.09;4956427;28;20182;-64
2024/04/02 07:12:21;;;;;;;14.00;3.10;;;;;;;10.28;100.00;100371.34;4974094;28;20311;-64
2024/04/02 07:14:46;;;;;;;14.40;3.33;;;;;;;10.50;100.00;100379.19;4973778;28;20253;-63
2024/04/02 07:17:12;;;;;;;13.80;3.13;;;;;;;10.44;100.00;100376.81;4972426;28;20214;-63
2024/04/02 07:19:37;;;;;;;15.60;3.20;;;;;;;10.40;100.00;100377.06;4971808;28;20202;-64
2024/04/02 07:22:03;;;;;;;15.38;3.50;;;;;;;10.42;100.00;100377.88;4974450;28;20186;-63
2024/04/02 07:24:28;;;;;;;9.05;2.92;;;;;;;10.62;100.00;100384.91;4976275;28;20217;-62
2024/04/02 07:26:54;;;;;;;12.65;3.55;;;;;;;10.59;100.00;100377.00;4976276;28;20231;-62
2024/04/02 07:29:19;;;;;;;11.98;3.05;;;;;;;10.52;100.00;100390.72;4976036;28;20182;-63
2024/04/02 07:31:44;;;;;;;10.35;2.92;;;;;;;10.54;100.00;100382.59;4977777;28;20703;-62
2024/04/02 07:34:10;;;;;;;12.27;2.83;;;;;;;10.49;100.00;100389.97;4977484;28;20210;-63
2024/04/02 07:36:35;;;;;;;11.07;3.20;;;;;;;10.34;100.00;100383.59;4977908;28;20305;-62
2024/04/02 07:39:01;;;;;;;11.63;3.38;;;;;;;10.32;100.00;100394.34;4975587;28;20190;-62
2024/04/02 07:41:26;;;;;;;11.15;2.85;;;;;;;10.48;100.00;100401.66;4977278;28;20189;-63
2024/04/02 07:43:51;;;;;;;13.23;2.85;;;;;;;10.43;100.00;100409.91;4977513;28;20194;-63
2024/04/02 07:46:17;;;;;;;9.95;3.22;;;;;;;10.43;100.00;100417.94;4977402;28;20597;-63
2024/04/02 07:48:42;;;;;;;17.40;3.13;;;;;;;10.75;100.00;100414.59;4977359;28;20194;-63
2024/04/02 07:51:11;;;;;;;15.00;3.58;;;;;;;11.07;100.00;100420.97;4977575;28;20185;-64
2024/04/02 07:53:36;;;;;;;12.07;3.22;;;;;;;10.93;100.00;100423.50;4977222;28;20210;-64
2024/04/02 07:56:04;;;;;;;8.65;2.90;;;;;;;11.13;100.00;100426.00;4977288;28;20273;-63
2024/04/02 07:58:30;;;;;;;12.88;3.38;;;;;;;10.97;100.00;100428.63;4976626;28;20237;-63
2024/04/02 08:00:55;;;;;;;9.85;3.05;;;;;;;10.88;100.00;100423.75;4975788;28;20182;-62
2024/04/02 08:03:21;;;;;;;13.00;4.15;;;;;;;10.68;100.00;100433.66;4975637;28;20194;-62
2024/04/02 08:05:46;;;;;;;13.63;3.45;;;;;;;10.67;100.00;100436.41;4974118;28;20225;-63
2024/04/02 08:08:11;;;;;;;17.38;5.50;;;;;;;10.77;100.00;100434.16;4975510;28;20592;-63
2024/04/02 08:10:37;;;;;;;16.98;4.35;;;;;;;10.57;100.00;100436.00;4976696;28;20712;-62
2024/04/02 08:13:03;;;;;;;12.75;2.90;;;;;;;10.55;100.00;100443.28;4976588;28;20549;-63
2024/04/02 08:15:28;;;;;;;13.45;4.20;;;;;;;10.69;100.00;100440.75;4976787;28;20206;-62
2024/04/02 08:17:53;;;;;;;20.77;3.92;;;;;;;10.65;100.00;100449.88;4976515;28;20654;-63
2024/04/02 08:20:19;;;;;;;15.48;4.00;;;;;;;10.87;100.00;100438.09;4975192;28;20592;-63
2024/04/02 08:22:44;;;;;;;10.63;3.45;;;;;;;10.93;100.00;100439.59;4973171;28;20182;-63
2024/04/02 08:25:10;;;;;;;15.63;4.15;;;;;;;11.10;100.00;100444.09;4973588;28;20712;-63
2024/04/02 08:27:36;;;;;;;12.32;3.45;;;;;;;10.88;100.00;100454.09;4975523;28;20186;-64
2024/04/02 08:30:01;;;;;;;14.48;3.67;;;;;;;10.76;100.00;100452.03;4976848;28;20174;-65
2024/04/02 08:32:26;;;;;;;15.38;3.80;;;;;;;10.99;100.00;100447.31;4975930;28;20229;-63
2024/04/02 08:34:52;;;;;;;12.43;3.97;;;;;;;10.67;100.00;100444.44;4976455;28;20218;-62
2024/04/02 08:37:17;;;;;;;14.40;3.08;;;;;;;10.66;100.00;100446.28;4976682;28;20226;-63
2024/04/02 08:39:43;;;;;;;15.30;5.25;;;;;;;10.65;100.00;100459.75;4976242;28;20210;-63
2024/04/02 08:42:08;;;;;;;13.95;3.75;;;;;;;10.71;100.00;100462.97;4976394;28;20186;-63
2024/04/02 08:44:35;;;;;;;13.70;3.63;;;;;;;10.71;100.00;100457.63;4976251;28;20186;-63
2024/04/02 08:47:01;;;;;;;10.93;2.90;;;;;;;10.74;100.00;100466.47;4976609;28;20716;-63
2024/04/02 08:49:27;;;;;;;8.73;2.65;;;;;;;10.63;100.00;100459.81;4974966;28;20561;-63
2024/04/02 08:51:53;;;;;;;16.73;3.83;;;;;;;10.80;100.00;100471.50;4976394;28;20190;-63
2024/04/02 08:54:19;;;;;;;18.13;3.05;;;;;;;10.97;100.00;100471.50;4971192;28;20199;-63
2024/04/02 08:56:46;;;;;;;8.45;2.40;;;;;;;11.01;99.66;100461.50;4976634;28;20699;-63
2024/04/02 08:59:11;;;;;;;13.15;2.80;;;;;;;10.74;99.04;100459.28;4975270;28;20234;-62
2024/04/02 09:01:37;;;;;;;13.25;2.95;;;;;;;10.87;99.76;100472.91;4976360;28;20641;-64
2024/04/02 09:04:03;;;;;;;7.20;2.42;;;;;;;11.23;99.04;100482.72;4976366;28;20183;-64
2024/04/02 09:06:29;;;;;;;11.63;2.53;;;;;;;11.21;97.82;100473.91;4974966;28;20652;-63
2024/04/02 09:08:56;;;;;;;13.73;2.60;;;;;;;11.30;97.55;100478.78;4975049;28;20309;-64
2024/04/02 09:11:24;;;;;;;13.15;2.78;;;;;;;11.46;96.56;100467.25;4976159;28;20186;-66
2024/04/02 09:13:50;;;;;;;13.30;2.55;;;;;;;11.11;96.51;100448.50;4974921;28;20715;-65
2024/04/02 09:16:16;;;;;;;12.45;2.72;;;;;;;11.30;95.73;100473.44;4976174;28;20194;-63
2024/04/02 09:18:42;;;;;;;7.47;2.72;;;;;;;11.56;94.28;100482.78;4974195;28;20182;-63
2024/04/02 09:21:08;;;;;;;11.63;2.53;;;;;;;11.47;94.52;100485.06;4976006;28;20272;-63
2024/04/02 09:23:33;;;;;;;12.57;2.60;;;;;;;11.79;94.17;100475.28;4955098;29;20202;-62
2024/04/02 09:25:59;;;;;;;12.82;3.08;;;;;;;11.73;93.20;100479.19;4970111;28;20664;-63
2024/04/02 09:28:25;;;;;;;10.05;3.00;;;;;;;11.59;92.19;100487.97;4976123;28;20261;-63
2024/04/02 09:30:53;;;;;;;11.73;2.42;;;;;;;11.61;91.71;100477.16;4974740;28;20253;-63
2024/04/02 09:33:19;;;;;;;6.10;1.60;;;;;;;11.76;91.53;100483.50;4975549;28;20216;-63
2024/04/02 09:36:03;;;;;;;16.67;3.40;;;;;;;11.87;92.83;100493.69;4975996;28;20265;-63
2024/04/02 09:38:29;;;;;;;16.30;2.00;;;;;;;11.63;92.92;100487.81;4975161;28;20186;-63
2024/04/02 09:40:55;;;;;;;13.88;3.78;;;;;;;12.08;92.27;100500.63;4974038;28;20190;-63
2024/04/02 09:43:22;;;;;;;8.88;2.00;;;;;;;12.08;91.11;100478.25;4957342;28;20194;-63
2024/04/02 09:45:48;;;;;;;13.50;2.22;;;;;;;11.87;90.89;100499.91;4973854;28;20654;-64
2024/04/02 09:48:14;;;;;;;12.15;2.88;;;;;;;11.86;92.07;100481.22;4962035;28;20852;-63
2024/04/02 09:50:40;;;;;;;14.15;2.70;;;;;;;11.76;93.23;100499.63;4974503;28;20214;-63
2024/04/02 09:53:06;;;;;;;12.55;2.03;;;;;;;11.88;91.95;100493.63;4958008;28;20236;-62
2024/04/02 09:55:32;;;;;;;10.52;1.98;;;;;;;11.80;90.90;100494.97;4974082;28;20190;-62
2024/04/02 09:57:58;;;;;;;10.88;3.08;;;;;;;11.75;91.28;100500.59;4974787;28;20205;-63
2024/04/02 10:00:24;;;;;;;9.55;1.95;;;;;;;11.78;91.89;100501.28;4974991;28;20233;-64
2024/04/02 10:02:50;;;;;;;9.00;2.53;;;;;;;11.94;91.45;100504.06;4974049;28;20229;-63
2024/04/02 10:05:21;;;;;;;11.00;2.08;;;;;;;11.97;91.54;100505.69;4973918;28;20182;-62
2024/04/02 10:07:50;;;;;;;15.48;3.13;;;;;;;11.82;91.95;100498.44;4974608;28;20190;-62
2024/04/02 10:10:16;;;;;;;10.40;2.63;;;;;;;12.16;90.96;100518.97;4973724;28;20221;-62
2024/04/02 10:12:41;;;;;;;10.52;2.35;;;;;;;12.33;89.91;100518.06;4972805;28;20238;-62
2024/04/02 10:15:10;;;;;;;13.90;2.10;;;;;;;12.03;88.11;100483.88;4974715;28;20202;-62
2024/04/02 10:17:39;;;;;;;8.90;2.10;;;;;;;12.19;89.55;100500.03;4957723;28;20190;-62
2024/04/02 10:20:23;;;;;;;7.13;2.00;;;;;;;12.65;89.25;100504.63;4974898;28;20261;-62
2024/04/02 10:22:52;;;;;;;6.57;2.58;;;;;;;12.19;88.42;100521.50;4974853;28;20278;-62
2024/04/02 10:25:17;;;;;;;10.57;2.30;;;;;;;12.02;88.77;100510.78;4972609;28;20190;-63
2024/04/02 10:27:44;;;;;;;8.20;2.45;;;;;;;12.09;89.70;100512.22;4973373;28;20253;-63
2024/04/02 10:30:27;;;;;;;8.20;2.20;;;;;;;11.93;90.93;100498.75;4974749;28;20259;-62
2024/04/02 10:32:54;;;;;;;11.98;2.28;;;;;;;12.12;92.47;100523.63;4974742;28;20208;-62
2024/04/02 10:35:29;;;;;;;7.63;2.67;;;;;;;11.85;94.89;100501.84;4957318;28;20210;-62
2024/04/02 10:37:56;;;;;;;6.82;2.08;;;;;;;12.00;95.02;100518.94;4974242;28;20190;-63
2024/04/02 10:40:23;;;;;;;7.47;2.40;;;;;;;11.89;95.39;100507.88;4974437;28;20187;-62
2024/04/02 10:42:50;;;;;;;12.68;2.53;;;;;;;11.53;95.84;100477.59;4974368;28;20582;-62
2024/04/02 10:45:16;;;;;;;11.25;3.05;;;;;;;12.01;95.07;100504.56;4974829;28;20182;-62
2024/04/02 10:47:45;;;;;;;12.43;2.28;;;;;;;11.86;94.51;100514.28;4974373;28;20559;-63
2024/04/02 10:50:11;;;;;;;10.82;2.63;;;;;;;11.93;94.42;100518.41;4975175;28;20205;-62
2024/04/02 10:52:36;;;;;;;13.48;2.78;;;;;;;12.11;93.30;100515.66;4975045;28;20269;-63
2024/04/02 10:55:03;;;;;;;10.95;1.92;;;;;;;12.04;92.63;100511.59;4976202;28;20213;-63
2024/04/02 10:57:33;;;;;;;8.43;2.65;;;;;;;12.03;93.08;100508.03;4975566;28;20200;-62
2024/04/02 11:00:00;;;;;;;7.43;2.53;;;;;;;12.25;92.13;100510.41;4969812;28;20313;-62
2024/04/02 11:02:26;;;;;;;15.25;3.25;;;;;;;12.09;92.91;100509.53;4973562;28;20182;-62
2024/04/02 11:04:52;;;;;;;10.50;2.58;;;;;;;12.33;91.58;100496.56;4974437;28;20197;-62
2024/04/02 11:07:17;;;;;;;9.52;2.45;;;;;;;12.45;90.23;100500.34;4972927;28;20240;-63
2024/04/02 11:09:43;;;;;;;9.48;2.95;;;;;;;12.44;89.63;100498.66;4974155;28;20187;-63
2024/04/02 11:12:08;;;;;;;8.63;2.45;;;;;;;12.43;89.25;100497.75;4967185;28;20195;-63